createdAt,value
2018-11-03T00:04:25.410Z,7.00
2018-11-03T00:06:53.924Z,7.77
2018-11-03T00:09:22.419Z,7.13
2018-11-03T00:11:50.968Z,7.17
2018-11-03T00:14:19.476Z,7.10
2018-11-03T00:16:47.995Z,8.03
2018-11-03T00:19:16.479Z,7.97
2018-11-03T00:21:44.946Z,8.13
2018-11-03T00:24:13.481Z,8.43
2018-11-03T00:26:42.088Z,7.67
2018-11-03T00:29:10.563Z,7.97
2018-11-03T00:31:39.072Z,7.60
2018-11-03T00:34:07.687Z,7.20
2018-11-03T00:36:36.199Z,6.53
2018-11-03T00:39:07.888Z,7.27
2018-11-03T00:41:36.350Z,7.20
2018-11-03T00:44:05.397Z,6.53
2018-11-03T00:46:34.013Z,6.57
2018-11-03T00:49:02.850Z,6.50
2018-11-03T00:51:31.333Z,6.90
2018-11-03T00:53:59.831Z,6.67
2018-11-03T00:56:28.326Z,7.00
2018-11-03T00:58:57.097Z,7.50
2018-11-03T01:01:25.569Z,6.77
2018-11-03T01:03:54.150Z,6.17
2018-11-03T01:06:22.620Z,6.87
2018-11-03T01:08:51.152Z,6.67
2018-11-03T01:11:19.619Z,6.13
2018-11-03T01:13:48.129Z,5.47
2018-11-03T01:16:16.592Z,5.70
2018-11-03T01:18:45.058Z,5.33
2018-11-03T01:21:13.521Z,5.90
2018-11-03T01:23:42.028Z,6.93
2018-11-03T01:26:10.439Z,5.60
2018-11-03T01:28:38.904Z,5.27
2018-11-03T01:31:07.355Z,5.53
2018-11-03T01:33:35.808Z,5.83
2018-11-03T01:36:04.285Z,5.23
2018-11-03T01:38:32.744Z,5.23
2018-11-03T01:41:01.225Z,5.43
2018-11-03T01:43:29.688Z,5.73
2018-11-03T01:45:58.166Z,6.10
2018-11-03T01:48:26.624Z,5.67
2018-11-03T01:50:55.087Z,6.47
2018-11-03T01:53:23.539Z,6.00
2018-11-03T01:55:51.999Z,5.93
2018-11-03T01:58:20.469Z,6.00
2018-11-03T02:00:48.941Z,6.13
2018-11-03T02:03:17.428Z,5.60
2018-11-03T02:05:45.945Z,5.60
2018-11-03T02:08:14.414Z,5.53
2018-11-03T02:10:42.931Z,6.07
2018-11-03T02:13:11.373Z,6.40
2018-11-03T02:15:39.877Z,7.07
2018-11-03T02:18:08.310Z,6.83
2018-11-03T02:20:36.758Z,5.53
2018-11-03T02:23:05.254Z,7.40
2018-11-03T02:25:33.744Z,6.73
2018-11-03T02:28:02.177Z,6.90
2018-11-03T02:30:30.636Z,6.50
2018-11-03T02:32:59.151Z,6.93
2018-11-03T02:35:27.572Z,7.00
2018-11-03T02:37:56.045Z,6.70
2018-11-03T02:40:24.496Z,7.57
2018-11-03T02:42:52.936Z,7.57
2018-11-03T02:45:21.438Z,7.03
2018-11-03T02:47:49.897Z,7.73
2018-11-03T02:50:18.374Z,6.80
2018-11-03T02:52:46.970Z,7.20
2018-11-03T02:55:15.409Z,7.70
2018-11-03T02:57:43.874Z,8.27
2018-11-03T03:00:12.551Z,7.93
2018-11-03T03:02:41.004Z,7.63
2018-11-03T03:05:10.435Z,7.77
2018-11-03T03:07:38.897Z,7.50
2018-11-03T03:10:08.829Z,7.37
2018-11-03T03:12:37.447Z,7.60
2018-11-03T03:15:07.192Z,8.17
2018-11-03T03:17:35.681Z,7.17
2018-11-03T03:20:04.555Z,7.30
2018-11-03T03:22:33.022Z,8.33
2018-11-03T03:25:01.468Z,7.43
2018-11-03T03:27:29.900Z,7.57
2018-11-03T03:29:58.336Z,7.63
2018-11-03T03:32:26.817Z,7.43
2018-11-03T03:34:56.297Z,7.97
2018-11-03T03:37:24.865Z,7.73
2018-11-03T03:39:53.330Z,8.47
2018-11-03T03:42:22.073Z,7.53
2018-11-03T03:44:50.638Z,7.43
2018-11-03T03:47:19.156Z,8.00
2018-11-03T03:49:47.585Z,8.50
2018-11-03T03:52:16.070Z,7.77
2018-11-03T03:54:44.509Z,7.60
2018-11-03T03:57:12.972Z,8.13
2018-11-03T03:59:41.454Z,8.57
2018-11-03T04:02:09.913Z,7.83
2018-11-03T04:04:38.403Z,8.07
2018-11-03T04:07:07.172Z,8.03
2018-11-03T04:09:35.658Z,7.97
2018-11-03T04:12:04.156Z,7.77
2018-11-03T04:14:32.614Z,8.10
2018-11-03T04:17:01.067Z,8.27
2018-11-03T04:19:29.632Z,8.23
2018-11-03T04:21:58.158Z,8.67
2018-11-03T04:24:26.625Z,8.10
2018-11-03T04:26:55.118Z,8.17
2018-11-03T04:29:23.669Z,7.97
2018-11-03T04:31:52.148Z,8.17
2018-11-03T04:34:20.629Z,8.70
2018-11-03T04:36:49.080Z,7.97
2018-11-03T04:39:17.532Z,7.83
2018-11-03T04:41:46.032Z,9.20
2018-11-03T04:44:14.473Z,8.37
2018-11-03T04:46:42.916Z,8.20
2018-11-03T04:49:11.829Z,7.97
2018-11-03T04:51:40.300Z,8.93
2018-11-03T04:54:08.774Z,8.07
2018-11-03T04:56:37.262Z,8.43
2018-11-03T04:59:06.060Z,9.33
2018-11-03T05:01:34.663Z,8.77
2018-11-03T05:04:03.116Z,8.47
2018-11-03T05:06:31.583Z,8.80
2018-11-03T05:09:00.040Z,9.07
2018-11-03T05:11:28.478Z,9.07
2018-11-03T05:13:56.939Z,9.20
2018-11-03T05:16:25.400Z,10.07
2018-11-03T05:18:53.898Z,8.50
2018-11-03T05:21:22.347Z,9.23
2018-11-03T05:23:50.827Z,8.97
2018-11-03T05:26:19.305Z,10.07
2018-11-03T05:28:47.781Z,10.47
2018-11-03T05:31:16.499Z,9.07
2018-11-03T05:33:45.010Z,9.47
2018-11-03T05:36:13.459Z,8.83
2018-11-03T05:38:41.990Z,10.10
2018-11-03T05:41:10.466Z,10.10
2018-11-03T05:43:38.939Z,10.27
2018-11-03T05:46:07.439Z,10.40
2018-11-03T05:48:35.962Z,12.67
2018-11-03T05:51:04.408Z,9.47
2018-11-03T05:53:32.865Z,10.37
2018-11-03T05:56:01.346Z,10.70
2018-11-03T05:58:29.818Z,10.73
2018-11-03T06:00:58.304Z,11.07
2018-11-03T06:03:26.779Z,11.57
2018-11-03T06:05:55.944Z,12.30
2018-11-03T06:08:24.451Z,12.20
2018-11-03T06:10:52.948Z,11.63
2018-11-03T06:13:21.421Z,11.53
2018-11-03T06:15:49.886Z,11.93
2018-11-03T06:18:18.371Z,12.23
2018-11-03T06:20:46.863Z,11.17
2018-11-03T06:23:15.322Z,11.67
2018-11-03T06:25:43.772Z,12.67
2018-11-03T06:28:12.265Z,11.60
2018-11-03T06:30:40.702Z,11.50
2018-11-03T06:33:09.191Z,12.70
2018-11-03T06:35:37.666Z,12.07
2018-11-03T06:38:06.458Z,10.97
2018-11-03T06:40:35.058Z,11.33
2018-11-03T06:43:03.513Z,11.73
2018-11-03T06:45:31.972Z,11.93
2018-11-03T06:48:00.645Z,12.13
2018-11-03T06:50:29.094Z,12.43
2018-11-03T06:52:57.593Z,12.13
2018-11-03T06:55:26.046Z,12.50
2018-11-03T06:57:54.510Z,11.87
2018-11-03T07:00:23.495Z,12.93
2018-11-03T07:02:51.967Z,13.40
2018-11-03T07:05:20.557Z,12.93
2018-11-03T07:07:48.990Z,12.27
2018-11-03T07:10:17.537Z,13.70
2018-11-03T07:12:46.123Z,13.23
2018-11-03T07:15:14.490Z,14.00
2018-11-03T07:17:42.994Z,14.00
2018-11-03T07:20:12.596Z,14.07
2018-11-03T07:22:41.529Z,14.97
2018-11-03T07:25:10.427Z,15.37
2018-11-03T07:27:38.906Z,16.97
2018-11-03T07:30:09.871Z,16.37
2018-11-03T07:32:38.405Z,17.03
2018-11-03T07:35:07.210Z,17.97
2018-11-03T07:37:35.782Z,16.73
2018-11-03T07:40:05.426Z,17.47
2018-11-03T07:42:33.909Z,17.60
2018-11-03T07:45:02.356Z,17.87
2018-11-03T07:47:30.901Z,17.30
2018-11-03T07:49:59.362Z,18.30
2018-11-03T07:52:28.754Z,18.07
2018-11-03T07:54:57.319Z,17.33
2018-11-03T07:57:25.769Z,18.50
2018-11-03T07:59:54.334Z,17.27
2018-11-03T08:02:22.826Z,19.80
2018-11-03T08:04:51.280Z,20.53
2018-11-03T08:07:19.764Z,20.60
2018-11-03T08:09:48.291Z,21.37
2018-11-03T08:12:16.734Z,22.00
2018-11-03T08:14:45.215Z,21.87
2018-11-03T08:17:13.809Z,23.63
2018-11-03T08:19:42.262Z,22.03
2018-11-03T08:22:10.704Z,21.57
2018-11-03T08:24:39.186Z,21.80
2018-11-03T08:27:07.637Z,23.03
2018-11-03T08:29:36.103Z,21.97
2018-11-03T08:32:04.712Z,22.80
2018-11-03T08:34:33.289Z,24.97
2018-11-03T08:37:01.805Z,23.17
2018-11-03T08:39:30.327Z,23.10
2018-11-03T08:41:58.724Z,21.37
2018-11-03T08:44:27.169Z,20.60
2018-11-03T08:46:55.697Z,18.43
2018-11-03T08:49:24.206Z,16.70
2018-11-03T08:51:52.665Z,17.50
2018-11-03T08:54:21.198Z,17.23
2018-11-03T08:56:49.683Z,16.13
2018-11-03T08:59:18.314Z,15.07
2018-11-03T09:01:46.773Z,14.27
2018-11-03T09:04:15.342Z,14.40
2018-11-03T09:06:43.861Z,14.03
2018-11-03T09:09:12.376Z,13.23
2018-11-03T09:11:40.816Z,13.93
2018-11-03T09:14:09.314Z,12.37
2018-11-03T09:16:37.715Z,12.50
2018-11-03T09:19:06.382Z,11.03
2018-11-03T09:21:35.010Z,10.30
2018-11-03T09:24:03.463Z,10.67
2018-11-03T09:26:32.039Z,10.13
2018-11-03T09:29:00.530Z,9.57
2018-11-03T09:31:29.009Z,8.37
2018-11-03T09:33:57.475Z,8.53
2018-11-03T09:36:26.294Z,9.03
2018-11-03T09:38:55.001Z,8.33
2018-11-03T09:41:23.375Z,8.07
2018-11-03T09:43:52.019Z,8.33
2018-11-03T09:46:20.519Z,8.40
2018-11-03T09:48:49.024Z,7.43
2018-11-03T09:51:17.638Z,7.07
2018-11-03T09:53:46.131Z,7.60
2018-11-03T09:56:14.689Z,7.70
2018-11-03T09:58:43.188Z,7.40
2018-11-03T10:01:11.627Z,6.80
2018-11-03T10:03:40.112Z,6.80
2018-11-03T10:06:08.629Z,6.60
2018-11-03T10:08:37.414Z,7.10
2018-11-03T10:11:05.985Z,7.67
2018-11-03T10:13:34.432Z,7.20
2018-11-03T10:16:02.987Z,7.60
2018-11-03T10:18:31.444Z,7.13
2018-11-03T10:21:00.045Z,6.47
2018-11-03T10:23:28.492Z,6.50
2018-11-03T10:25:56.933Z,6.63
2018-11-03T10:28:25.396Z,6.73
2018-11-03T10:30:53.847Z,7.23
2018-11-03T10:33:22.348Z,6.90
2018-11-03T10:35:50.780Z,7.27
2018-11-03T10:38:19.232Z,6.70
2018-11-03T10:40:47.800Z,6.47
2018-11-03T10:43:16.298Z,6.70
2018-11-03T10:45:44.805Z,6.50
2018-11-03T10:48:13.288Z,6.67
2018-11-03T10:50:41.933Z,6.90
2018-11-03T11:12:46.297Z,5.50
2018-11-03T11:15:14.798Z,6.13
2018-11-03T11:17:43.337Z,5.57
2018-11-03T11:20:11.871Z,4.70
2018-11-03T11:22:40.344Z,4.40
2018-11-03T11:25:10.373Z,4.60
2018-11-03T11:27:38.804Z,4.20
2018-11-03T11:30:09.615Z,3.50
2018-11-03T11:32:38.151Z,4.00
2018-11-03T11:35:06.985Z,3.40
2018-11-03T11:37:35.755Z,3.40
2018-11-03T11:40:04.682Z,4.67
2018-11-03T11:42:33.591Z,3.40
2018-11-03T11:45:02.338Z,3.40
2018-11-03T11:47:30.822Z,3.20
2018-11-03T11:49:59.290Z,2.60
2018-11-03T11:52:27.764Z,3.00
2018-11-03T11:54:56.325Z,2.57
2018-11-03T11:57:24.702Z,2.90
2018-11-03T11:59:53.218Z,3.03
2018-11-03T12:02:21.730Z,2.80
2018-11-03T12:04:50.178Z,3.67
2018-11-03T12:07:18.659Z,3.60
2018-11-03T12:09:47.260Z,3.27
2018-11-03T12:12:15.805Z,3.60
2018-11-03T12:14:44.273Z,3.27
2018-11-03T12:17:12.749Z,3.57
2018-11-03T12:19:41.203Z,3.53
2018-11-03T12:22:09.655Z,3.80
2018-11-03T15:42:46.589Z,9.77
2018-11-03T15:45:16.441Z,11.20
2018-11-03T15:47:45.538Z,10.73
2018-11-03T15:50:14.838Z,10.00
2018-11-03T15:52:43.897Z,10.07
2018-11-03T15:55:12.538Z,10.23
2018-11-03T15:57:41.012Z,10.20
2018-11-03T16:03:30.883Z,10.17
2018-11-03T16:05:59.420Z,11.07
2018-11-03T16:08:31.806Z,11.00
2018-11-03T16:11:00.298Z,11.37
2018-11-03T16:16:50.298Z,11.80
2018-11-03T16:19:18.876Z,11.53
2018-11-03T16:21:47.394Z,11.40
2018-11-03T16:24:15.882Z,12.53
2018-11-03T16:26:44.437Z,12.90
2018-11-03T16:29:12.893Z,12.07
2018-11-03T16:31:41.396Z,12.17
2018-11-03T16:34:10.023Z,12.30
2018-11-03T16:36:38.570Z,12.87
2018-11-03T16:39:09.632Z,12.30
2018-11-03T16:41:38.130Z,11.63
2018-11-03T16:44:06.975Z,12.53
2018-11-03T16:46:35.586Z,12.80
2018-11-03T16:49:04.094Z,12.30
2018-11-03T16:51:32.552Z,15.10
2018-11-03T16:54:01.056Z,13.60
2018-11-03T16:56:29.590Z,13.13
2018-11-03T16:58:58.037Z,12.47
2018-11-03T17:01:26.533Z,13.13
2018-11-03T17:03:55.061Z,13.80
2018-11-03T17:06:23.551Z,17.40
2018-11-03T17:08:52.037Z,19.80
2018-11-03T17:11:21.253Z,15.30
2018-11-03T17:13:49.777Z,15.43
2018-11-03T17:16:18.285Z,14.27
2018-11-03T17:18:48.263Z,14.00
2018-11-03T17:21:16.731Z,13.50
2018-11-03T17:23:45.349Z,12.77
2018-11-03T17:26:13.884Z,14.30
2018-11-03T17:28:42.362Z,13.23
2018-11-03T17:31:10.985Z,16.60
2018-11-03T17:33:39.443Z,16.63
2018-11-03T17:36:07.910Z,15.70
2018-11-03T17:38:36.359Z,16.20
2018-11-03T17:41:05.106Z,15.57
2018-11-03T17:43:33.716Z,14.80
2018-11-03T17:46:02.293Z,15.20
2018-11-03T17:48:31.915Z,18.13
2018-11-03T17:51:00.622Z,18.33
2018-11-03T17:53:29.076Z,18.00
2018-11-03T17:55:57.553Z,30.53
2018-11-03T17:58:26.021Z,18.73
2018-11-03T18:00:55.236Z,15.27
2018-11-03T18:03:23.484Z,15.83
2018-11-03T18:12:35.836Z,16.90
2018-11-03T18:15:04.301Z,15.33
2018-11-03T18:17:32.792Z,16.20
2018-11-03T18:20:01.226Z,16.37
2018-11-03T18:25:51.185Z,15.90
2018-11-03T18:28:19.681Z,15.30
2018-11-03T18:30:48.219Z,15.37
2018-11-03T18:33:16.718Z,15.43
2018-11-03T18:35:45.353Z,16.60
2018-11-03T18:38:13.980Z,15.03
2018-11-03T18:40:42.455Z,16.13
2018-11-03T18:43:10.929Z,16.07
2018-11-03T18:45:39.447Z,17.40
2018-11-03T18:48:07.964Z,15.20
2018-11-03T18:50:39.626Z,16.23
2018-11-03T18:53:08.108Z,16.13
2018-11-03T18:55:36.761Z,15.80
2018-11-03T18:58:05.318Z,15.37
2018-11-03T19:00:33.769Z,19.43
2018-11-03T19:03:02.380Z,17.10
2018-11-03T19:05:31.473Z,18.80
2018-11-03T19:08:00.011Z,17.03
2018-11-03T19:10:29.141Z,17.27
2018-11-03T19:12:58.006Z,15.90
2018-11-03T19:15:27.261Z,16.87
2018-11-03T19:17:55.764Z,18.03
2018-11-03T19:20:24.654Z,17.93
2018-11-03T19:22:53.178Z,18.17
2018-11-03T19:25:21.633Z,17.47
2018-11-03T19:27:50.105Z,18.20
2018-11-03T19:30:18.953Z,19.27
2018-11-03T19:32:49.312Z,17.67
2018-11-03T19:35:17.781Z,19.80
2018-11-03T19:37:46.248Z,20.73
2018-11-03T19:40:15.029Z,21.03
2018-11-03T19:42:43.632Z,18.73
2018-11-03T19:45:15.196Z,18.83
2018-11-03T19:47:43.629Z,18.87
2018-11-03T19:50:12.584Z,18.20
2018-11-03T19:52:41.859Z,17.03
2018-11-03T19:55:10.356Z,17.60
2018-11-03T19:57:38.890Z,16.97
2018-11-03T20:00:10.013Z,16.83
2018-11-03T20:02:39.312Z,17.37
2018-11-03T20:05:08.677Z,17.80
2018-11-03T20:07:37.264Z,18.47
2018-11-03T20:10:07.352Z,18.40
2018-11-03T20:12:35.961Z,16.83
2018-11-03T20:15:05.863Z,17.93
2018-11-03T20:17:34.372Z,17.77
2018-11-03T20:20:03.043Z,18.13
2018-11-03T20:22:32.154Z,17.30
2018-11-03T20:25:01.837Z,18.20
2018-11-03T20:27:30.276Z,17.93
2018-11-03T20:29:58.734Z,19.50
2018-11-03T20:32:30.841Z,21.77
2018-11-03T20:34:59.317Z,21.27
2018-11-03T20:37:27.801Z,21.27
2018-11-03T20:39:56.368Z,20.03
2018-11-03T20:42:24.849Z,21.40
2018-11-03T20:44:53.464Z,22.47
2018-11-03T20:47:22.106Z,22.57
2018-11-03T20:49:50.969Z,22.57
2018-11-03T20:52:19.389Z,22.27
2018-11-03T20:54:49.269Z,22.07
2018-11-03T20:57:17.730Z,22.83
2018-11-03T20:59:46.239Z,20.73
2018-11-03T21:02:14.753Z,22.00
2018-11-03T21:04:43.209Z,21.37
2018-11-03T21:07:11.706Z,21.07
2018-11-03T21:09:40.188Z,21.63
2018-11-03T21:12:08.695Z,21.57
2018-11-03T21:14:40.966Z,22.37
2018-11-03T21:17:09.403Z,22.00
2018-11-03T21:19:37.897Z,21.07
2018-11-03T21:22:09.147Z,21.93
2018-11-03T21:24:38.168Z,22.07
2018-11-03T21:27:07.986Z,23.43
2018-11-03T21:29:36.464Z,22.43
2018-11-03T21:32:05.448Z,24.30
2018-11-03T21:34:33.981Z,23.77
2018-11-03T21:37:02.618Z,23.73
2018-11-03T21:39:31.128Z,26.60
2018-11-03T21:42:03.605Z,23.07
2018-11-03T21:44:32.208Z,22.37
2018-11-03T21:47:00.732Z,22.63
2018-11-03T21:49:29.170Z,22.27
2018-11-03T21:51:57.628Z,22.43
2018-11-03T21:54:26.210Z,21.93
2018-11-03T21:56:54.850Z,22.37
2018-11-03T21:59:23.313Z,22.07
2018-11-03T22:01:51.775Z,21.70
2018-11-03T22:04:20.496Z,22.77
2018-11-03T22:06:48.960Z,28.07
2018-11-03T22:09:17.405Z,21.83
2018-11-03T22:11:58.631Z,28.57
2018-11-03T22:14:27.461Z,21.57
2018-11-03T22:16:55.936Z,23.73
2018-11-03T22:19:24.422Z,23.43
2018-11-03T22:21:52.964Z,24.90
2018-11-03T22:24:21.332Z,23.33
2018-11-03T22:26:49.837Z,22.80
2018-11-03T22:29:18.336Z,22.83
2018-11-03T22:31:46.912Z,24.27
2018-11-03T22:34:15.436Z,22.47
2018-11-03T22:36:43.945Z,22.63
2018-11-03T22:39:12.881Z,23.00
2018-11-03T22:41:41.503Z,25.53
2018-11-03T22:44:10.450Z,26.90
2018-11-03T22:46:38.974Z,25.10
2018-11-03T22:49:07.492Z,26.97
2018-11-03T22:51:36.046Z,27.47
2018-11-03T22:54:04.812Z,27.20
2018-11-03T22:56:33.359Z,25.73
2018-11-03T22:59:01.829Z,26.40
2018-11-03T23:01:30.288Z,26.47
2018-11-03T23:03:58.785Z,26.90
2018-11-03T23:06:27.251Z,26.73
2018-11-03T23:08:55.732Z,28.43
2018-11-03T23:11:24.229Z,27.20
2018-11-03T23:13:52.790Z,25.47
2018-11-03T23:16:21.266Z,24.33
2018-11-03T23:18:49.788Z,24.13
2018-11-03T23:21:18.248Z,22.43
2018-11-03T23:23:46.799Z,23.33
2018-11-03T23:26:15.301Z,24.93
2018-11-03T23:28:43.785Z,24.00
2018-11-03T23:31:12.252Z,25.60
2018-11-03T23:33:40.722Z,26.03
2018-11-03T23:36:09.214Z,26.27
2018-11-03T23:38:37.689Z,25.83
2018-11-03T23:41:06.250Z,24.70
2018-11-03T23:43:34.886Z,23.60
2018-11-03T23:46:03.372Z,23.60
2018-11-03T23:48:31.916Z,23.93
2018-11-03T23:51:00.393Z,21.67
2018-11-03T23:53:28.975Z,22.60
2018-11-03T23:55:57.598Z,22.17
2018-11-03T23:58:26.068Z,23.87
